createdAt,value
2018-12-14T00:00:47.995Z,95361.00
2018-12-14T00:06:16.119Z,95367.00
2018-12-14T00:11:45.631Z,95370.00
2018-12-14T00:17:14.379Z,95371.00
2018-12-14T00:22:42.568Z,95372.00
2018-12-14T00:28:10.793Z,95368.00
2018-12-14T00:33:39.107Z,95363.00
2018-12-14T00:39:07.243Z,95370.00
2018-12-14T00:44:35.337Z,95371.00
2018-12-14T00:50:04.153Z,95369.00
2018-12-14T00:55:32.466Z,95368.00
2018-12-14T01:01:00.747Z,95370.00
2018-12-14T01:06:28.986Z,95380.00
2018-12-14T01:11:58.350Z,95388.00
2018-12-14T01:17:26.695Z,95386.00
2018-12-14T01:22:54.819Z,95388.00
2018-12-14T01:28:22.934Z,95386.00
2018-12-14T01:33:51.039Z,95395.00
2018-12-14T01:39:19.137Z,95392.00
2018-12-14T01:44:47.235Z,95390.00
2018-12-14T01:50:15.359Z,95400.00
2018-12-14T01:55:43.493Z,95403.00
2018-12-14T02:01:11.621Z,95402.00
2018-12-14T02:06:39.755Z,95410.00
2018-12-14T02:12:11.317Z,95398.00
2018-12-14T02:17:38.679Z,95388.00
2018-12-14T02:23:06.986Z,95381.00
2018-12-14T02:28:35.308Z,95379.00
2018-12-14T02:34:03.445Z,95385.00
2018-12-14T02:39:31.615Z,95379.00
2018-12-14T02:44:59.812Z,95378.00
2018-12-14T02:50:27.987Z,95377.00
2018-12-14T02:55:56.090Z,95371.00
2018-12-14T03:01:24.233Z,95378.00
2018-12-14T03:06:52.346Z,95381.00
2018-12-14T03:12:26.751Z,95385.00
2018-12-14T03:17:50.616Z,95387.00
2018-12-14T03:23:18.967Z,95390.00
2018-12-14T03:28:47.180Z,95384.00
2018-12-14T03:34:15.360Z,95387.00
2018-12-14T03:39:43.505Z,95385.00
2018-12-14T03:45:11.693Z,95407.00
2018-12-14T03:50:39.826Z,95408.00
2018-12-14T03:56:07.938Z,95405.00
2018-12-14T04:01:36.180Z,95407.00
2018-12-14T04:07:04.333Z,95410.00
2018-12-14T04:12:32.590Z,95410.00
2018-12-14T04:18:00.696Z,95411.00
2018-12-14T04:23:28.832Z,95420.00
2018-12-14T04:28:56.921Z,95415.00
2018-12-14T04:34:25.091Z,95427.00
2018-12-14T04:39:53.180Z,95434.00
2018-12-14T04:45:21.425Z,95441.00
2018-12-14T04:50:49.517Z,95443.00
2018-12-14T04:56:17.607Z,95447.00
2018-12-14T05:01:45.739Z,95440.00
2018-12-14T05:07:13.936Z,95442.00
2018-12-14T05:12:42.341Z,95460.00
2018-12-14T05:18:10.514Z,95458.00
2018-12-14T05:23:38.641Z,95448.00
2018-12-14T05:29:06.731Z,95452.00
2018-12-14T05:34:34.901Z,95465.00
2018-12-14T05:40:03.073Z,95473.00
2018-12-14T05:45:31.209Z,95474.00
2018-12-14T05:50:59.602Z,95472.00
2018-12-14T05:56:29.594Z,95484.00
2018-12-14T06:01:57.755Z,95483.00
2018-12-14T06:07:25.845Z,95484.00
2018-12-14T06:12:53.947Z,95492.00
2018-12-14T06:18:22.043Z,95480.00
2018-12-14T06:23:50.364Z,95484.00
2018-12-14T06:29:18.463Z,95494.00
2018-12-14T06:34:46.649Z,95501.00
2018-12-14T06:40:14.743Z,95500.00
2018-12-14T06:45:43.380Z,95496.00
2018-12-14T06:51:11.829Z,95498.00
2018-12-14T06:56:39.980Z,95505.00
2018-12-14T07:02:08.248Z,95509.00
2018-12-14T07:07:36.473Z,95510.00
2018-12-14T07:13:04.591Z,95515.00
2018-12-14T07:18:32.678Z,95508.00
2018-12-14T07:24:00.819Z,95529.00
2018-12-14T07:29:28.984Z,95522.00
2018-12-14T07:34:57.102Z,95523.00
2018-12-14T07:40:25.188Z,95526.00
2018-12-14T07:45:53.283Z,95526.00
2018-12-14T07:51:21.482Z,95538.00
2018-12-14T07:56:49.572Z,95548.00
2018-12-14T08:02:17.774Z,95557.00
2018-12-14T08:07:45.870Z,95558.00
2018-12-14T08:13:13.970Z,95556.00
2018-12-14T08:18:42.088Z,95557.00
2018-12-14T08:24:10.252Z,95568.00
2018-12-14T08:29:38.424Z,95574.00
2018-12-14T08:35:07.898Z,95573.00
2018-12-14T08:40:35.983Z,95573.00
2018-12-14T08:46:04.092Z,95579.00
2018-12-14T08:51:32.180Z,95577.00
2018-12-14T08:57:00.319Z,95594.00
2018-12-14T09:02:28.418Z,95600.00
2018-12-14T09:07:56.521Z,95603.00
2018-12-14T09:13:24.612Z,95607.00
2018-12-14T09:18:52.705Z,95604.00
2018-12-14T09:24:20.796Z,95613.00
2018-12-14T09:29:48.889Z,95614.00
2018-12-14T09:35:17.018Z,95614.00
2018-12-14T09:40:45.099Z,95621.00
2018-12-14T09:46:13.261Z,95619.00
2018-12-14T09:51:41.365Z,95624.00
2018-12-14T09:57:09.503Z,95618.00
2018-12-14T10:02:37.654Z,95620.00
2018-12-14T10:08:05.760Z,95622.00
2018-12-14T10:13:33.919Z,95627.00
2018-12-14T10:19:02.705Z,95631.00
2018-12-14T10:24:30.815Z,95628.00
2018-12-14T10:29:58.910Z,95627.00
2018-12-14T10:35:27.086Z,95628.00
2018-12-14T10:40:55.293Z,95627.00
2018-12-14T10:46:23.454Z,95635.00
2018-12-14T10:51:51.860Z,95629.00
2018-12-14T10:57:19.997Z,95638.00
2018-12-14T11:02:48.152Z,95644.00
2018-12-14T11:08:16.284Z,95640.00
2018-12-14T11:13:44.447Z,95641.00
2018-12-14T11:19:12.670Z,95641.00
2018-12-14T11:24:40.783Z,95643.00
2018-12-14T11:30:09.728Z,95638.00
2018-12-14T11:35:38.241Z,95644.00
2018-12-14T11:41:06.340Z,95642.00
2018-12-14T11:46:36.183Z,95631.00
2018-12-14T11:52:04.395Z,95631.00
2018-12-14T11:57:33.529Z,95626.00
2018-12-14T12:03:01.636Z,95623.00
2018-12-14T12:08:29.812Z,95623.00
2018-12-14T12:13:58.090Z,95635.00
2018-12-14T12:19:26.192Z,95618.00
2018-12-14T12:24:54.313Z,95630.00
2018-12-14T12:30:22.466Z,95633.00
2018-12-14T12:35:50.796Z,95620.00
2018-12-14T12:41:18.916Z,95621.00
2018-12-14T12:46:48.141Z,95626.00
2018-12-14T12:52:16.252Z,95627.00
2018-12-14T12:57:44.380Z,95623.00
2018-12-14T13:03:12.744Z,95622.00
2018-12-14T13:08:40.912Z,95620.00
2018-12-14T13:14:09.066Z,95621.00
2018-12-14T13:19:37.202Z,95625.00
2018-12-14T13:25:05.643Z,95631.00
2018-12-14T13:30:33.906Z,95641.00
2018-12-14T13:36:02.853Z,95636.00
2018-12-14T13:41:31.081Z,95651.00
2018-12-14T13:46:59.364Z,95659.00
2018-12-14T13:52:27.546Z,95667.00
2018-12-14T13:57:55.728Z,95672.00
2018-12-14T14:09:30.594Z,95677.00
2018-12-14T14:14:58.686Z,95680.00
2018-12-14T14:20:26.820Z,95699.00
2018-12-14T14:25:54.907Z,95687.00
2018-12-14T14:31:22.988Z,95704.00
2018-12-14T14:36:51.085Z,95699.00
2018-12-14T14:42:19.163Z,95708.00
2018-12-14T14:47:47.250Z,95705.00
2018-12-14T14:53:16.238Z,95710.00
2018-12-14T14:58:44.338Z,95705.00
2018-12-14T15:04:12.442Z,95711.00
2018-12-14T15:09:40.527Z,95719.00
2018-12-14T15:15:08.672Z,95729.00
2018-12-14T15:20:36.740Z,95740.00
2018-12-14T15:26:05.076Z,95744.00
2018-12-14T15:31:33.155Z,95747.00
2018-12-14T15:37:02.134Z,95748.00
2018-12-14T15:42:30.218Z,95760.00
2018-12-14T15:47:58.375Z,95775.00
2018-12-14T15:53:26.514Z,95773.00
2018-12-14T15:58:54.594Z,95775.00
2018-12-14T16:04:22.687Z,95778.00
2018-12-14T16:09:50.777Z,95776.00
2018-12-14T16:15:20.410Z,95782.00
2018-12-14T16:20:48.666Z,95785.00
2018-12-14T16:26:19.731Z,95792.00
2018-12-14T16:31:47.802Z,95790.00
2018-12-14T16:37:15.920Z,95800.00
2018-12-14T16:42:44.956Z,95806.00
2018-12-14T16:48:13.971Z,95799.00
2018-12-14T16:53:47.538Z,95804.00
2018-12-14T16:59:17.643Z,95813.00
2018-12-14T17:04:45.729Z,95823.00
2018-12-14T17:10:14.786Z,95823.00
2018-12-14T17:15:42.876Z,95826.00
2018-12-14T17:21:11.028Z,95835.00
2018-12-14T17:26:39.173Z,95832.00
2018-12-14T17:32:08.242Z,95838.00
2018-12-14T17:37:36.346Z,95851.00
2018-12-14T17:43:05.106Z,95853.00
2018-12-14T17:48:34.138Z,95843.00
2018-12-14T17:54:02.230Z,95852.00
2018-12-14T17:59:30.294Z,95855.00
2018-12-14T18:05:00.513Z,95854.00
2018-12-14T18:10:28.634Z,95875.00
2018-12-14T18:15:56.769Z,95874.00
2018-12-14T18:21:25.950Z,95873.00
2018-12-14T18:26:54.050Z,95876.00
2018-12-14T18:32:22.172Z,95879.00
2018-12-14T18:37:50.242Z,95879.00
2018-12-14T18:43:18.313Z,95881.00
2018-12-14T18:48:46.393Z,95884.00
2018-12-14T18:54:14.667Z,95893.00
2018-12-14T18:59:42.797Z,95894.00
2018-12-14T19:05:15.239Z,95904.00
2018-12-14T19:10:48.485Z,95905.00
2018-12-14T19:16:16.651Z,95904.00
2018-12-14T19:21:56.823Z,95905.00
2018-12-14T19:27:25.931Z,95912.00
2018-12-14T19:32:58.591Z,95927.00
2018-12-14T19:38:27.639Z,95929.00
2018-12-14T19:43:57.277Z,95940.00
2018-12-14T19:49:25.411Z,95941.00
2018-12-14T19:54:53.562Z,95950.00
2018-12-14T20:00:21.648Z,95972.00
2018-12-14T20:05:49.754Z,95956.00
2018-12-14T20:11:17.853Z,95956.00
2018-12-14T20:16:45.955Z,95963.00
2018-12-14T20:22:14.171Z,95966.00
2018-12-14T20:27:42.304Z,95967.00
2018-12-14T20:33:10.584Z,95978.00
2018-12-14T20:38:39.131Z,95984.00
2018-12-14T20:44:07.339Z,95985.00
2018-12-14T20:49:35.490Z,95984.00
2018-12-14T20:55:04.618Z,95984.00
2018-12-14T21:00:32.713Z,95982.00
2018-12-14T21:06:00.864Z,95995.00
2018-12-14T21:11:29.786Z,95998.00
2018-12-14T21:16:58.044Z,95994.00
2018-12-14T21:22:26.831Z,95999.00
2018-12-14T21:27:55.111Z,96009.00
2018-12-14T21:33:23.191Z,96005.00
2018-12-14T21:38:51.312Z,96011.00
2018-12-14T21:44:20.232Z,95999.00
2018-12-14T21:49:48.309Z,96003.00
2018-12-14T21:55:19.572Z,96004.00
2018-12-14T22:00:47.685Z,96010.00
2018-12-14T22:06:16.149Z,96007.00
2018-12-14T22:11:44.323Z,96000.00
2018-12-14T22:17:12.474Z,96002.00
2018-12-14T22:22:40.628Z,95985.00
2018-12-14T22:28:09.521Z,96005.00
2018-12-14T22:33:37.768Z,95998.00
2018-12-14T22:39:07.300Z,96008.00
2018-12-14T22:44:36.701Z,96000.00
2018-12-14T22:50:05.411Z,95993.00
2018-12-14T22:55:33.509Z,96001.00
2018-12-14T23:01:01.615Z,95996.00
2018-12-14T23:06:29.749Z,95997.00
2018-12-14T23:11:58.289Z,95994.00
2018-12-14T23:17:26.433Z,95997.00
2018-12-14T23:22:54.545Z,95993.00
2018-12-14T23:28:22.650Z,95992.00
2018-12-14T23:33:50.752Z,95980.00
2018-12-14T23:39:18.861Z,96001.00
2018-12-14T23:44:47.029Z,95993.00
2018-12-14T23:50:15.224Z,96001.00
2018-12-14T23:55:43.492Z,96003.00
